Time;durP1;ratioP1;P1;durP2;ratioP2;P2;SDS_P1;SDS_P2;PMS_P1;PMS_P2;Temp;Humidity;BMP_temperature;BMP_pressure;BME280_temperature;BME280_humidity;BME280_pressure;Samples;Min_cycle;Max_cycle;Signal;HPM_P1;HPM_P2
2022/05/14 00:01:37;;;;;;;7.20;2.38;;;22.80;47.40;;;;;;5012553;28;20025;-74
2022/05/14 00:04:04;;;;;;;8.10;2.40;;;22.80;47.50;;;;;;5013428;28;20022;-75
2022/05/14 00:06:31;;;;;;;6.20;2.60;;;22.80;47.60;;;;;;5021788;28;20044;-74
2022/05/14 00:09:01;;;;;;;7.20;2.22;;;22.80;47.50;;;;;;4993557;28;20105;-75
2022/05/14 00:14:12;;;;;;;5.60;2.47;;;22.80;47.70;;;;;;5020404;28;20096;-75
2022/05/14 00:16:38;;;;;;;8.88;2.67;;;22.80;47.60;;;;;;5014506;28;20065;-75
2022/05/14 00:19:05;;;;;;;10.25;2.83;;;22.80;47.70;;;;;;5013529;28;20030;-76
2022/05/14 00:21:32;;;;;;;9.85;2.42;;;22.80;48.30;;;;;;5006891;28;20054;-73
2022/05/14 00:23:58;;;;;;;8.30;2.60;;;22.80;48.10;;;;;;5022995;28;20554;-72
2022/05/14 00:26:25;;;;;;;9.82;2.80;;;22.70;46.90;;;;;;5029835;28;20035;-75
2022/05/14 00:28:50;;;;;;;7.80;2.40;;;22.60;46.10;;;;;;5031509;28;20021;-75
2022/05/14 00:31:17;;;;;;;7.88;2.95;;;22.60;45.20;;;;;;4986055;28;20032;-74
2022/05/14 00:33:43;;;;;;;15.18;4.75;;;22.60;45.40;;;;;;5026789;28;20033;-75
2022/05/14 00:36:10;;;;;;;16.35;3.47;;;22.60;45.60;;;;;;4995132;28;20108;-72
2022/05/14 00:38:37;;;;;;;9.43;3.10;;;22.60;46.00;;;;;;5005795;28;20406;-72
2022/05/14 00:41:05;;;;;;;10.63;3.10;;;22.60;46.30;;;;;;5011384;28;20029;-72
2022/05/14 00:43:32;;;;;;;9.07;2.72;;;22.70;46.10;;;;;;4978106;28;20040;-72
2022/05/14 00:46:15;;;;;;;6.75;2.50;;;22.60;46.30;;;;;;4995075;28;20576;-72
2022/05/14 00:48:42;;;;;;;9.43;2.88;;;22.70;46.20;;;;;;5002282;28;20032;-72
2022/05/14 00:51:14;;;;;;;17.33;3.00;;;22.70;46.10;;;;;;5021524;28;20029;-72
2022/05/14 00:53:51;;;;;;;9.13;2.85;;;22.60;46.10;;;;;;5010777;28;20026;-72
2022/05/14 00:56:22;;;;;;;7.22;2.30;;;22.70;46.00;;;;;;4994093;28;20026;-72
2022/05/14 00:59:04;;;;;;;8.18;2.92;;;22.60;46.00;;;;;;4987427;28;20389;-72
2022/05/14 01:01:30;;;;;;;6.70;2.45;;;22.70;46.00;;;;;;4994869;28;20033;-72
2022/05/14 01:03:56;;;;;;;6.05;2.38;;;22.60;46.20;;;;;;4996697;28;20071;-72
2022/05/14 01:06:25;;;;;;;5.65;2.38;;;22.60;46.10;;;;;;5024794;28;20034;-72
2022/05/14 01:08:50;;;;;;;6.50;2.40;;;22.60;46.00;;;;;;4992873;28;20037;-72
2022/05/14 01:11:17;;;;;;;12.32;2.25;;;22.60;46.20;;;;;;5019222;28;20030;-72
2022/05/14 01:13:45;;;;;;;7.80;2.22;;;22.60;46.30;;;;;;5000606;28;20029;-72
2022/05/14 01:16:11;;;;;;;7.57;2.22;;;22.60;46.20;;;;;;5003082;28;20406;-72
2022/05/14 01:18:37;;;;;;;7.13;2.47;;;22.60;46.10;;;;;;4996368;28;20025;-72
2022/05/14 01:21:24;;;;;;;5.95;2.30;;;22.60;46.80;;;;;;5018178;28;20109;-72
2022/05/14 01:26:53;;;;;;;9.93;2.17;;;22.60;46.10;;;;;;5003344;28;20037;-72
2022/05/14 01:29:23;;;;;;;12.20;2.30;;;22.60;46.10;;;;;;5010509;28;20021;-72
2022/05/14 01:31:55;;;;;;;8.02;2.30;;;22.70;46.20;;;;;;5001913;28;20084;-72
2022/05/14 01:34:24;;;;;;;8.13;2.50;;;22.60;46.20;;;;;;5011114;28;20482;-72
2022/05/14 01:36:50;;;;;;;6.65;2.40;;;22.60;46.00;;;;;;4977291;28;20026;-72
2022/05/14 01:39:19;;;;;;;7.85;2.33;;;22.60;46.10;;;;;;5001160;28;20064;-72
2022/05/14 01:41:45;;;;;;;6.45;2.17;;;22.70;46.30;;;;;;4989254;28;20466;-72
2022/05/14 01:44:11;;;;;;;7.00;2.30;;;22.60;46.20;;;;;;5018508;28;20520;-72
2022/05/14 01:46:38;;;;;;;6.55;2.22;;;22.60;46.20;;;;;;4991950;28;20058;-71
2022/05/14 01:49:05;;;;;;;6.30;2.03;;;22.60;46.20;;;;;;4977600;28;20040;-72
2022/05/14 01:51:32;;;;;;;7.00;2.05;;;22.60;46.20;;;;;;5011718;28;20537;-72
2022/05/14 01:54:00;;;;;;;7.32;2.08;;;22.60;46.10;;;;;;5009253;28;20030;-73
2022/05/14 01:56:26;;;;;;;8.75;2.20;;;22.70;46.30;;;;;;5026281;28;20025;-72
2022/05/14 01:58:52;;;;;;;5.15;1.98;;;22.60;46.40;;;;;;5003207;28;20071;-73
2022/05/14 02:01:26;;;;;;;6.97;1.95;;;22.70;46.30;;;;;;5018466;28;20052;-72
2022/05/14 02:03:55;;;;;;;7.57;2.15;;;22.70;46.20;;;;;;5017976;28;20018;-72
2022/05/14 02:06:22;;;;;;;;;;;22.70;46.50;;;;;;4993046;28;20029;-72
2022/05/14 02:08:48;;;;;;;8.73;2.60;;;22.60;46.20;;;;;;5008675;28;19913;-73
2022/05/14 02:11:14;;;;;;;8.18;1.90;;;22.60;46.20;;;;;;5024826;28;20498;-72
2022/05/14 02:13:43;;;;;;;6.72;1.90;;;22.60;46.20;;;;;;5003236;28;20029;-72
2022/05/14 02:16:09;;;;;;;5.15;1.92;;;22.60;46.20;;;;;;5005290;28;20397;-72
2022/05/14 02:18:37;;;;;;;8.25;2.20;;;22.60;46.30;;;;;;5017569;28;20026;-72
2022/05/14 02:21:03;;;;;;;4.53;1.80;;;22.60;46.30;;;;;;4992457;28;20030;-72
2022/05/14 02:23:29;;;;;;;8.23;1.98;;;22.60;46.30;;;;;;5010067;28;20018;-71
2022/05/14 02:25:55;;;;;;;6.65;1.92;;;22.60;46.30;;;;;;4978879;28;20036;-72
2022/05/14 02:28:22;;;;;;;10.50;2.10;;;22.60;46.30;;;;;;5027351;28;20025;-72
2022/05/14 02:30:47;;;;;;;5.70;2.08;;;22.70;46.30;;;;;;5025570;28;20449;-73
2022/05/14 02:33:14;;;;;;;7.43;2.00;;;22.60;46.10;;;;;;5000607;28;20057;-72
2022/05/14 02:35:41;;;;;;;5.75;1.73;;;22.60;46.10;;;;;;5003285;28;20486;-72
2022/05/14 02:38:08;;;;;;;8.07;2.30;;;22.70;46.20;;;;;;5010188;28;20033;-72
2022/05/14 02:40:34;;;;;;;6.65;2.20;;;22.60;46.10;;;;;;5014948;28;20038;-72
2022/05/14 02:43:00;;;;;;;7.05;1.95;;;22.60;46.10;;;;;;5015139;28;20075;-72
2022/05/14 02:45:26;;;;;;;7.05;1.75;;;22.60;46.10;;;;;;5009284;28;20033;-72
2022/05/14 02:47:52;;;;;;;4.80;1.88;;;22.60;46.20;;;;;;5004745;28;20057;-72
2022/05/14 02:50:19;;;;;;;4.43;1.80;;;22.60;46.10;;;;;;5013455;28;20030;-72
2022/05/14 02:52:45;;;;;;;4.85;1.75;;;22.60;46.10;;;;;;5021395;28;20030;-72
2022/05/14 02:55:11;;;;;;;5.40;2.00;;;22.60;46.00;;;;;;5012804;28;20030;-73
2022/05/14 02:57:37;;;;;;;8.15;2.13;;;22.60;46.10;;;;;;5003597;28;20443;-72
2022/05/14 03:00:06;;;;;;;8.32;2.15;;;22.60;46.00;;;;;;4981924;28;20022;-72
2022/05/14 03:02:31;;;;;;;7.50;1.98;;;22.60;46.10;;;;;;5005287;28;20041;-72
2022/05/14 03:04:57;;;;;;;6.97;2.00;;;22.60;46.00;;;;;;5019489;28;20017;-72
2022/05/14 03:07:23;;;;;;;5.45;2.28;;;22.60;46.10;;;;;;5034367;28;20382;-72
2022/05/14 03:09:49;;;;;;;6.22;2.03;;;22.60;46.10;;;;;;5000484;28;20026;-72
2022/05/14 03:12:15;;;;;;;4.70;1.90;;;22.60;46.10;;;;;;4997184;28;20124;-72
2022/05/14 03:14:42;;;;;;;4.00;1.75;;;22.60;46.10;;;;;;4995244;28;20026;-72
2022/05/14 03:17:09;;;;;;;7.20;2.00;;;22.60;46.20;;;;;;5029256;28;20100;-72
2022/05/14 03:19:35;;;;;;;4.20;1.65;;;22.60;46.20;;;;;;5024268;28;20055;-72
2022/05/14 03:22:03;;;;;;;7.72;2.20;;;22.60;46.20;;;;;;4999541;28;20039;-72
2022/05/14 03:24:30;;;;;;;3.35;1.60;;;22.50;46.10;;;;;;4999905;28;20026;-72
2022/05/14 03:26:56;;;;;;;5.18;1.85;;;22.60;46.10;;;;;;5002766;28;20063;-72
2022/05/14 03:29:21;;;;;;;5.03;1.88;;;22.60;46.00;;;;;;5011722;28;20029;-72
2022/05/14 03:31:47;;;;;;;5.85;2.28;;;22.60;46.10;;;;;;5022226;28;20028;-72
2022/05/14 03:34:13;;;;;;;6.03;2.22;;;22.60;46.10;;;;;;5020202;28;20087;-72
2022/05/14 03:36:41;;;;;;;5.82;1.75;;;22.60;46.00;;;;;;4979925;28;20030;-72
2022/05/14 03:39:09;;;;;;;6.45;2.17;;;22.60;46.10;;;;;;4995192;28;20032;-72
2022/05/14 03:41:35;;;;;;;5.03;1.80;;;22.50;46.00;;;;;;4995311;28;20033;-72
2022/05/14 03:44:01;;;;;;;4.97;1.90;;;22.50;46.00;;;;;;4979379;28;20026;-72
2022/05/14 03:46:27;;;;;;;8.98;2.28;;;22.60;46.10;;;;;;5008127;28;20394;-71
2022/05/14 03:48:53;;;;;;;7.32;1.73;;;22.50;45.90;;;;;;5019949;28;20022;-72
2022/05/14 03:51:19;;;;;;;5.78;2.00;;;22.50;46.10;;;;;;4996239;28;20049;-72
2022/05/14 03:53:44;;;;;;;8.00;2.25;;;22.50;46.00;;;;;;4979078;28;20045;-72
2022/05/14 03:56:10;;;;;;;7.18;1.90;;;22.50;46.00;;;;;;4995797;28;20198;-72
2022/05/14 03:58:37;;;;;;;9.02;2.22;;;22.50;46.00;;;;;;4995694;28;20026;-72
2022/05/14 04:01:04;;;;;;;5.50;1.98;;;22.50;46.00;;;;;;4995231;28;20677;-72
2022/05/14 04:03:34;;;;;;;5.18;1.55;;;22.50;46.00;;;;;;5020501;28;20060;-72
2022/05/14 04:06:02;;;;;;;6.65;2.10;;;22.50;46.10;;;;;;5000503;28;20030;-72
2022/05/14 04:08:28;;;;;;;8.40;1.98;;;22.50;46.00;;;;;;4999967;28;20553;-72
2022/05/14 04:10:54;;;;;;;9.05;2.50;;;22.50;46.10;;;;;;5018485;28;20030;-72
2022/05/14 04:13:21;;;;;;;6.63;1.70;;;22.50;46.10;;;;;;5012471;28;20030;-72
2022/05/14 04:15:47;;;;;;;4.90;1.75;;;22.50;46.10;;;;;;4995441;28;20437;-72
2022/05/14 04:18:13;;;;;;;4.93;1.90;;;22.50;46.10;;;;;;4995305;28;20022;-72
2022/05/14 04:20:39;;;;;;;5.30;1.63;;;22.50;46.00;;;;;;5007564;28;20038;-72
2022/05/14 04:23:05;;;;;;;5.85;2.17;;;22.50;46.20;;;;;;5017226;28;20026;-72
2022/05/14 04:25:31;;;;;;;6.72;1.98;;;22.50;46.10;;;;;;5020115;28;20045;-72
2022/05/14 04:27:58;;;;;;;6.20;1.90;;;22.50;46.00;;;;;;4995629;28;20026;-72
2022/05/14 04:30:26;;;;;;;9.35;1.90;;;22.50;45.90;;;;;;4994579;28;20124;-72
2022/05/14 04:32:51;;;;;;;7.20;2.00;;;22.50;46.00;;;;;;4994456;28;20072;-72
2022/05/14 04:35:19;;;;;;;7.28;2.03;;;22.50;46.00;;;;;;4983231;28;20095;-72
2022/05/14 04:37:47;;;;;;;6.43;1.95;;;22.50;46.00;;;;;;5025185;28;20072;-72
2022/05/14 04:40:13;;;;;;;5.35;1.92;;;22.50;46.10;;;;;;4978510;28;20042;-72
2022/05/14 04:42:39;;;;;;;7.78;2.22;;;22.50;46.00;;;;;;5018939;28;20026;-72
2022/05/14 04:45:08;;;;;;;6.43;2.03;;;22.50;46.00;;;;;;4978468;28;20029;-72
2022/05/14 04:47:35;;;;;;;6.15;1.90;;;22.50;46.10;;;;;;5012135;28;20030;-72
2022/05/14 04:50:02;;;;;;;6.75;2.00;;;22.50;46.10;;;;;;4995689;28;20072;-72
2022/05/14 04:52:28;;;;;;;4.53;1.85;;;22.50;46.10;;;;;;4994414;28;20381;-73
2022/05/14 04:54:54;;;;;;;5.90;1.83;;;22.50;46.20;;;;;;4974932;28;20115;-72
2022/05/14 04:57:20;;;;;;;7.43;2.30;;;22.50;46.10;;;;;;5015909;28;20380;-72
2022/05/14 04:59:46;;;;;;;8.45;2.38;;;22.50;46.10;;;;;;5010751;28;20041;-72
2022/05/14 05:04:56;;;;;;;6.70;2.40;;;22.50;46.20;;;;;;5017586;28;22119;-72
2022/05/14 05:07:23;;;;;;;6.88;2.60;;;22.50;46.10;;;;;;5019239;28;20053;-72
2022/05/14 05:09:49;;;;;;;7.40;2.20;;;22.50;46.20;;;;;;5002049;28;20030;-72
2022/05/14 05:12:15;;;;;;;5.47;2.40;;;22.50;46.20;;;;;;5010840;28;20546;-72
2022/05/14 05:14:41;;;;;;;8.70;2.28;;;22.50;46.20;;;;;;5010724;28;20030;-72
2022/05/14 05:17:07;;;;;;;7.50;2.63;;;22.50;46.30;;;;;;5011386;28;20029;-73
2022/05/14 05:19:34;;;;;;;5.55;2.25;;;22.50;46.10;;;;;;5012000;28;20022;-72
2022/05/14 05:22:00;;;;;;;7.38;2.05;;;22.50;46.40;;;;;;5009607;28;20072;-72
2022/05/14 05:24:25;;;;;;;9.05;2.42;;;22.50;46.30;;;;;;5009945;28;20064;-72
2022/05/14 05:26:51;;;;;;;9.57;2.40;;;22.50;46.40;;;;;;5031980;28;20025;-72
2022/05/14 05:29:18;;;;;;;10.07;2.80;;;22.50;46.30;;;;;;5031437;28;20038;-71
2022/05/14 05:31:43;;;;;;;5.80;1.95;;;22.50;46.20;;;;;;5020362;28;20053;-72
2022/05/14 05:34:09;;;;;;;6.65;2.25;;;22.50;46.50;;;;;;5010242;28;20107;-72
2022/05/14 05:36:35;;;;;;;9.05;2.40;;;22.50;46.50;;;;;;5007851;28;20029;-73
2022/05/14 05:39:00;;;;;;;6.97;2.70;;;22.50;46.20;;;;;;5011127;28;20049;-72
2022/05/14 05:41:26;;;;;;;9.30;2.50;;;22.50;46.20;;;;;;5020260;28;20040;-72
2022/05/14 05:43:52;;;;;;;12.23;2.55;;;22.60;46.30;;;;;;5024401;28;20037;-71
2022/05/14 05:46:18;;;;;;;6.38;2.10;;;22.50;46.30;;;;;;5010904;28;20029;-72
2022/05/14 05:48:43;;;;;;;14.90;2.80;;;22.50;46.30;;;;;;5011587;28;20026;-72
2022/05/14 05:51:10;;;;;;;6.55;2.38;;;22.60;46.40;;;;;;5010378;28;20036;-72
2022/05/14 05:59:16;;;;;;;7.78;2.53;;;22.50;46.30;;;;;;5007682;28;20034;-71
2022/05/14 06:01:43;;;;;;;6.15;2.42;;;22.50;46.60;;;;;;5018488;28;20032;-72
2022/05/14 06:04:09;;;;;;;7.50;2.10;;;22.50;46.40;;;;;;5008513;28;20025;-75
2022/05/14 06:06:36;;;;;;;10.43;2.90;;;22.50;46.30;;;;;;5009828;28;20022;-73
2022/05/14 06:09:02;;;;;;;7.75;2.72;;;22.50;46.60;;;;;;5004778;28;20029;-73
2022/05/14 06:11:30;;;;;;;11.68;3.05;;;22.50;46.30;;;;;;5022012;28;20096;-73
2022/05/14 06:13:56;;;;;;;10.57;3.00;;;22.40;46.30;;;;;;5026154;28;20113;-74
2022/05/14 06:16:21;;;;;;;13.93;2.78;;;22.30;46.30;;;;;;5021606;28;20029;-73
2022/05/14 06:18:47;;;;;;;11.88;3.22;;;22.30;45.50;;;;;;5030821;28;20037;-73
2022/05/14 06:21:13;;;;;;;17.58;3.92;;;22.20;45.70;;;;;;5015733;28;20097;-73
2022/05/14 06:23:39;;;;;;;18.13;4.43;;;22.20;45.70;;;;;;5015210;28;20117;-73
2022/05/14 06:26:05;;;;;;;12.57;3.83;;;22.10;45.20;;;;;;5017947;28;20037;-73
2022/05/14 06:28:31;;;;;;;12.75;3.83;;;22.10;44.90;;;;;;5018171;28;20083;-75
2022/05/14 06:30:57;;;;;;;11.55;3.38;;;22.10;45.80;;;;;;5029079;28;20060;-75
2022/05/14 06:33:23;;;;;;;13.23;3.80;;;22.10;45.80;;;;;;5023883;28;20033;-75
2022/05/14 06:35:49;;;;;;;11.48;3.63;;;22.10;45.60;;;;;;5010535;28;20034;-74
2022/05/14 06:38:15;;;;;;;11.68;3.22;;;22.20;45.30;;;;;;5017795;28;20036;-74
2022/05/14 06:40:41;;;;;;;12.52;4.05;;;22.30;45.50;;;;;;5016414;28;20041;-75
2022/05/14 06:43:08;;;;;;;10.98;3.35;;;22.30;45.50;;;;;;5007589;28;20026;-74
2022/05/14 06:45:34;;;;;;;10.40;3.30;;;22.30;45.40;;;;;;5017910;28;20053;-74
2022/05/14 06:48:00;;;;;;;12.00;3.55;;;22.30;45.80;;;;;;5016266;28;20033;-74
2022/05/14 06:50:29;;;;;;;8.32;3.17;;;22.30;45.80;;;;;;5015486;28;20029;-74
2022/05/14 06:52:59;;;;;;;13.50;3.42;;;22.30;45.80;;;;;;5017093;28;20092;-74
2022/05/14 06:55:27;;;;;;;12.45;3.10;;;22.40;46.00;;;;;;5016961;28;20022;-74
2022/05/14 06:57:54;;;;;;;13.18;3.83;;;22.40;46.10;;;;;;5016766;28;20022;-74
2022/05/14 07:00:20;;;;;;;9.32;2.90;;;22.40;46.10;;;;;;5033518;28;20017;-74
2022/05/14 07:02:47;;;;;;;7.65;3.60;;;22.40;46.20;;;;;;5000441;28;20025;-74
2022/05/14 07:07:58;;;;;;;10.20;3.40;;;22.40;46.30;;;;;;5016703;28;20014;-74
2022/05/14 07:10:24;;;;;;;8.23;2.95;;;22.40;46.30;;;;;;5016052;28;20390;-74
2022/05/14 07:12:51;;;;;;;13.38;3.40;;;22.40;46.40;;;;;;4998769;28;20042;-75
2022/05/14 07:15:18;;;;;;;9.68;3.20;;;22.40;46.40;;;;;;5018765;28;20030;-74
2022/05/14 07:17:44;;;;;;;7.72;3.10;;;22.40;46.40;;;;;;5035583;28;20017;-74
2022/05/14 07:20:10;;;;;;;9.38;2.90;;;22.50;46.50;;;;;;5017201;28;20038;-75
2022/05/14 07:22:36;;;;;;;8.65;3.13;;;22.40;46.40;;;;;;5016289;28;20034;-74
2022/05/14 07:25:03;;;;;;;9.15;3.03;;;22.50;46.60;;;;;;4999471;28;20544;-74
2022/05/14 07:27:28;;;;;;;17.55;3.03;;;22.40;46.70;;;;;;5015530;28;20401;-75
2022/05/14 07:29:54;;;;;;;10.13;3.08;;;22.50;46.90;;;;;;4998811;28;20125;-75
2022/05/14 07:32:20;;;;;;;14.35;3.53;;;22.50;46.70;;;;;;5025570;28;20490;-76
2022/05/14 07:34:46;;;;;;;8.88;2.95;;;22.50;46.90;;;;;;5004790;28;20112;-76
2022/05/14 07:37:21;;;;;;;8.50;3.78;;;22.50;47.70;;;;;;4998735;28;20030;-76
2022/05/14 07:40:00;;;;;;;7.50;2.80;;;22.50;46.90;;;;;;4997089;28;20035;-75
2022/05/14 07:42:50;;;;;;;14.02;3.47;;;22.50;47.10;;;;;;5000947;28;20030;-76
2022/05/14 07:45:21;;;;;;;9.20;3.47;;;22.50;47.10;;;;;;5012701;28;20084;-76
2022/05/14 07:47:48;;;;;;;7.57;2.92;;;22.50;47.20;;;;;;5019310;28;20021;-76
2022/05/14 07:50:14;;;;;;;7.70;2.95;;;22.50;47.20;;;;;;5024105;28;20022;-76
2022/05/14 07:52:41;;;;;;;8.60;3.33;;;22.50;47.10;;;;;;5012694;28;20072;-76
2022/05/14 07:55:08;;;;;;;7.30;3.03;;;22.50;47.10;;;;;;5013520;28;20033;-76
2022/05/14 07:57:34;;;;;;;7.95;3.00;;;22.50;47.20;;;;;;5013801;28;20038;-76
2022/05/14 08:00:00;;;;;;;7.80;2.92;;;22.50;47.10;;;;;;5013482;28;20030;-76
2022/05/14 08:02:34;;;;;;;5.90;2.90;;;22.50;47.30;;;;;;5024561;28;20025;-75
2022/05/14 08:05:09;;;;;;;6.72;2.85;;;22.50;47.30;;;;;;5008943;28;20036;-75
2022/05/14 08:07:35;;;;;;;10.23;3.22;;;22.50;47.20;;;;;;5033257;28;20021;-75
2022/05/14 08:10:02;;;;;;;12.40;3.38;;;22.50;47.30;;;;;;5020085;28;20441;-77
2022/05/14 08:12:34;;;;;;;8.38;3.15;;;22.50;47.40;;;;;;5011786;28;20034;-75
2022/05/14 08:15:00;;;;;;;10.23;3.00;;;22.50;47.50;;;;;;5014495;28;20674;-75
2022/05/14 08:17:29;;;;;;;8.73;3.00;;;22.60;47.60;;;;;;4978162;28;20061;-73
2022/05/14 08:19:55;;;;;;;8.68;3.33;;;22.60;48.10;;;;;;5028173;28;20022;-75
2022/05/14 08:25:07;;;;;;;8.77;3.17;;;22.70;47.80;;;;;;5000524;28;20026;-75
2022/05/14 08:27:44;;;;;;;8.38;2.65;;;22.70;47.80;;;;;;5012156;28;20026;-75
2022/05/14 08:30:22;;;;;;;13.63;3.42;;;22.70;48.20;;;;;;5013088;28;20029;-74
2022/05/14 08:32:47;;;;;;;9.52;3.30;;;22.70;48.10;;;;;;5018432;28;20025;-74
2022/05/14 08:35:15;;;;;;;18.65;3.15;;;22.60;48.00;;;;;;5031832;28;20032;-75
2022/05/14 08:37:41;;;;;;;17.75;3.95;;;22.60;48.40;;;;;;5023124;28;20073;-75
2022/05/14 08:40:17;;;;;;;18.90;3.53;;;22.60;48.50;;;;;;5011876;28;20080;-75
2022/05/14 08:42:49;;;;;;;22.25;3.70;;;22.60;48.40;;;;;;5012714;28;20390;-75
2022/05/14 08:45:19;;;;;;;13.32;3.50;;;22.60;47.80;;;;;;5012008;28;20022;-76
2022/05/14 08:47:55;;;;;;;9.77;3.35;;;22.70;48.10;;;;;;5013859;28;20083;-77
2022/05/14 08:50:26;;;;;;;15.75;3.30;;;22.70;49.50;;;;;;5021057;28;20017;-73
2022/05/14 08:52:55;;;;;;;16.70;3.42;;;22.80;49.60;;;;;;5008447;28;20429;-74
2022/05/14 08:55:21;;;;;;;17.00;3.23;;;22.80;49.60;;;;;;5004889;28;20025;-74
2022/05/14 08:58:11;;;;;;;14.27;3.42;;;22.80;50.40;;;;;;5005385;28;20281;-76
2022/05/14 09:00:37;;;;;;;16.65;3.67;;;22.80;50.80;;;;;;5011046;28;20438;-69
2022/05/14 09:03:03;;;;;;;11.75;3.63;;;22.70;50.40;;;;;;5009399;28;20031;-68
2022/05/14 09:05:32;;;;;;;22.40;8.15;;;22.70;49.00;;;;;;5019958;28;20095;-74
2022/05/14 09:07:59;;;;;;;22.85;7.68;;;22.70;52.20;;;;;;5016205;28;20037;-73
2022/05/14 09:10:30;;;;;;;16.98;7.32;;;22.70;50.10;;;;;;5007961;28;20113;-73
2022/05/14 09:13:00;;;;;;;21.83;7.65;;;22.80;51.00;;;;;;5011996;28;20030;-74
2022/05/14 09:15:30;;;;;;;21.63;7.53;;;22.90;51.70;;;;;;5012731;28;20445;-74
2022/05/14 09:18:13;;;;;;;22.02;8.07;;;22.90;50.10;;;;;;5011878;28;20566;-74
2022/05/14 09:20:46;;;;;;;18.48;7.82;;;22.90;50.70;;;;;;5017269;28;20026;-74
2022/05/14 09:23:22;;;;;;;19.50;8.60;;;23.00;51.60;;;;;;5019107;28;20031;-73
2022/05/14 09:25:52;;;;;;;17.65;7.82;;;23.00;50.40;;;;;;5015393;28;20034;-74
2022/05/14 09:28:46;;;;;;;16.05;7.90;;;23.00;51.30;;;;;;5011894;28;20072;-74
2022/05/14 09:31:32;;;;;;;15.75;7.80;;;22.90;51.20;;;;;;5009679;28;20026;-74
2022/05/14 09:34:13;;;;;;;16.08;7.82;;;22.90;51.80;;;;;;5003042;28;20053;-74
2022/05/14 09:36:40;;;;;;;18.58;7.95;;;22.90;51.50;;;;;;5012693;28;20040;-73
2022/05/14 09:39:37;;;;;;;20.80;8.48;;;22.90;52.30;;;;;;5021211;28;20034;-73
2022/05/14 09:42:04;;;;;;;19.30;7.30;;;23.00;52.70;;;;;;5008732;28;20034;-74
2022/05/14 09:44:48;;;;;;;18.25;7.20;;;22.90;52.20;;;;;;5008976;28;20054;-71
2022/05/14 09:47:28;;;;;;;19.48;7.75;;;22.90;54.00;;;;;;4991917;28;20050;-73
2022/05/14 09:49:59;;;;;;;21.77;7.97;;;22.90;53.00;;;;;;5001632;28;20116;-73
2022/05/14 09:52:29;;;;;;;20.30;7.55;;;22.90;52.40;;;;;;5011151;28;20049;-75
2022/05/14 09:54:57;;;;;;;19.80;8.82;;;22.90;51.30;;;;;;5026078;28;20111;-76
2022/05/14 09:57:31;;;;;;;26.63;7.68;;;22.80;50.70;;;;;;5011729;28;20030;-76
2022/05/14 10:00:00;;;;;;;19.23;7.75;;;22.90;50.80;;;;;;5004673;28;20025;-74
2022/05/14 10:02:51;;;;;;;23.00;7.47;;;22.90;51.00;;;;;;5018364;28;20026;-74
2022/05/14 10:05:29;;;;;;;20.65;7.93;;;22.90;51.20;;;;;;4977493;28;20037;-75
2022/05/14 10:08:21;;;;;;;17.02;6.60;;;22.90;51.80;;;;;;5024050;28;20025;-75
2022/05/14 10:10:59;;;;;;;21.92;6.82;;;22.90;50.70;;;;;;5017358;28;20030;-75
2022/05/14 10:13:36;;;;;;;17.40;7.07;;;22.90;50.80;;;;;;5007393;28;20481;-75
2022/05/14 10:16:22;;;;;;;19.85;7.00;;;22.90;50.60;;;;;;5010538;28;20042;-75
2022/05/14 10:19:22;;;;;;;22.25;6.90;;;22.90;52.30;;;;;;5008011;28;20026;-75
2022/05/14 10:22:23;;;;;;;19.42;6.70;;;22.90;50.50;;;;;;4981111;28;20097;-76
2022/05/14 10:28:32;;;;;;;21.25;7.57;;;22.80;50.60;;;;;;5010096;28;20140;-76
2022/05/14 10:31:18;;;;;;;21.45;7.40;;;22.90;56.20;;;;;;5007289;28;20049;-76
2022/05/14 10:33:45;;;;;;;18.85;6.70;;;23.00;54.20;;;;;;4997063;28;20121;-75
2022/05/14 10:36:33;;;;;;;20.48;7.20;;;23.00;52.30;;;;;;5011135;28;20037;-75
2022/05/14 10:39:23;;;;;;;21.40;7.40;;;23.00;53.60;;;;;;5010419;28;20478;-75
2022/05/14 10:41:57;;;;;;;28.98;8.20;;;23.00;57.10;;;;;;5008116;28;20022;-72
2022/05/14 10:44:42;;;;;;;24.30;7.82;;;23.00;56.40;;;;;;5021461;28;20022;-75
2022/05/14 10:47:10;;;;;;;29.23;7.88;;;23.00;56.60;;;;;;5018121;28;20029;-75
2022/05/14 10:49:46;;;;;;;29.48;8.93;;;23.00;58.30;;;;;;5009856;28;20030;-74
2022/05/14 10:52:16;;;;;;;24.08;7.90;;;23.00;57.20;;;;;;4976195;28;20408;-72
2022/05/14 10:54:43;;;;;;;35.38;10.73;;;22.90;57.70;;;;;;5021711;28;20101;-75
2022/05/14 10:57:14;;;;;;;25.50;8.25;;;22.90;56.00;;;;;;5014664;28;20030;-75
2022/05/14 10:59:59;;;;;;;27.98;8.15;;;22.90;54.90;;;;;;5011305;28;20042;-75
2022/05/14 11:02:32;;;;;;;26.40;8.60;;;22.90;54.80;;;;;;5009875;28;20565;-75
2022/05/14 11:04:58;;;;;;;24.05;8.63;;;22.90;58.70;;;;;;5010722;28;20030;-76
2022/05/14 11:07:39;;;;;;;21.70;8.70;;;22.90;57.90;;;;;;5004223;28;20025;-75
2022/05/14 11:10:32;;;;;;;27.95;8.45;;;22.80;56.90;;;;;;5028420;28;20029;-75
2022/05/14 11:13:29;;;;;;;22.10;8.32;;;22.80;57.20;;;;;;5033966;28;20087;-74
2022/05/14 11:16:10;;;;;;;19.92;8.82;;;22.80;57.30;;;;;;5034018;28;20462;-74
2022/05/14 11:18:49;;;;;;;17.45;7.72;;;22.80;55.40;;;;;;5034305;28;20474;-74
2022/05/14 11:21:18;;;;;;;21.63;8.10;;;22.80;56.40;;;;;;5033563;28;20448;-75
2022/05/14 11:23:54;;;;;;;18.45;7.50;;;22.80;54.00;;;;;;5029051;28;20479;-75
2022/05/14 11:26:21;;;;;;;24.77;8.18;;;22.80;54.30;;;;;;5029825;28;20065;-75
2022/05/14 11:28:59;;;;;;;22.08;7.60;;;22.80;54.20;;;;;;5034092;28;20053;-75
2022/05/14 11:31:39;;;;;;;23.17;7.63;;;22.80;54.00;;;;;;5032770;28;20029;-74
2022/05/14 11:34:18;;;;;;;22.23;7.82;;;22.80;53.80;;;;;;5034176;28;20108;-75
2022/05/14 11:36:48;;;;;;;15.93;7.05;;;22.80;54.00;;;;;;5033947;28;20021;-74
2022/05/14 11:39:20;;;;;;;24.92;7.88;;;22.80;53.90;;;;;;5025898;28;20025;-75
2022/05/14 11:41:46;;;;;;;18.40;7.22;;;22.80;53.80;;;;;;5022123;28;20056;-75
2022/05/14 11:44:12;;;;;;;18.05;7.13;;;22.80;53.80;;;;;;5013968;28;20026;-75
2022/05/14 11:46:43;;;;;;;20.10;7.70;;;22.80;53.80;;;;;;5013336;28;20104;-75
2022/05/14 11:49:37;;;;;;;19.35;8.10;;;22.80;53.60;;;;;;5014226;28;20117;-75
2022/05/14 11:52:20;;;;;;;18.08;7.15;;;22.80;53.70;;;;;;5013051;28;20168;-75
2022/05/14 11:54:58;;;;;;;19.20;7.22;;;22.80;53.50;;;;;;5012569;28;20141;-75
2022/05/14 11:57:44;;;;;;;17.73;7.60;;;22.80;53.50;;;;;;5025769;28;20481;-75
2022/05/14 12:00:17;;;;;;;17.83;7.25;;;22.80;53.30;;;;;;5028267;28;20022;-75
2022/05/14 12:03:15;;;;;;;18.40;7.18;;;22.80;53.40;;;;;;5032394;28;20584;-75
2022/05/14 12:05:50;;;;;;;21.42;7.63;;;22.80;53.40;;;;;;5024510;28;20112;-75
2022/05/14 12:09:00;;;;;;;17.30;7.18;;;22.80;53.40;;;;;;5033429;28;20040;-75
2022/05/14 12:11:27;;;;;;;17.90;7.25;;;22.80;53.50;;;;;;5031534;28;20027;-75
2022/05/14 12:14:16;;;;;;;17.90;7.47;;;22.80;53.60;;;;;;4990984;28;20413;-75
2022/05/14 12:16:52;;;;;;;24.73;7.22;;;22.80;54.30;;;;;;4995513;28;20030;-75
2022/05/14 12:19:21;;;;;;;20.05;6.95;;;22.80;54.60;;;;;;5011104;28;20038;-74
2022/05/14 12:21:56;;;;;;;17.42;7.30;;;22.80;54.20;;;;;;5012024;28;20415;-74
2022/05/14 12:24:25;;;;;;;23.63;6.68;;;22.80;54.10;;;;;;5011689;28;20100;-75
2022/05/14 12:26:51;;;;;;;18.27;7.33;;;22.80;55.10;;;;;;5011553;28;20127;-75
2022/05/14 12:29:30;;;;;;;18.45;6.70;;;22.80;54.20;;;;;;4999796;28;20122;-75
2022/05/14 12:34:47;;;;;;;20.75;6.65;;;22.80;52.90;;;;;;5030857;28;20494;-75
2022/05/14 12:37:25;;;;;;;18.52;7.20;;;22.90;53.30;;;;;;5015762;28;20030;-75
2022/05/14 12:39:53;;;;;;;17.92;6.63;;;22.90;53.30;;;;;;5001225;28;20027;-75
2022/05/14 12:42:33;;;;;;;21.27;7.40;;;22.90;53.40;;;;;;5007948;28;20071;-75
2022/05/14 12:44:59;;;;;;;18.38;6.63;;;22.90;53.30;;;;;;5012424;28;20018;-74
2022/05/14 12:47:30;;;;;;;15.25;6.60;;;22.90;53.60;;;;;;5020036;28;20018;-75
2022/05/14 12:49:56;;;;;;;18.73;5.65;;;22.80;53.10;;;;;;5032217;28;20041;-74
2022/05/14 12:52:28;;;;;;;15.63;6.45;;;22.90;53.30;;;;;;5017046;28;20022;-75
2022/05/14 12:55:01;;;;;;;16.25;6.25;;;22.90;53.50;;;;;;5005127;28;20049;-75
2022/05/14 12:57:28;;;;;;;16.13;6.15;;;22.80;53.50;;;;;;5011185;28;20108;-75
2022/05/14 12:59:54;;;;;;;21.23;7.22;;;22.80;53.60;;;;;;5011472;28;20014;-76
2022/05/14 13:02:27;;;;;;;14.48;6.30;;;22.80;53.80;;;;;;4994693;28;20022;-75
2022/05/14 13:05:02;;;;;;;24.83;6.72;;;22.80;53.80;;;;;;5017090;28;20041;-75
2022/05/14 13:07:28;;;;;;;16.95;7.47;;;22.80;54.30;;;;;;5009885;28;20037;-76
2022/05/14 13:09:56;;;;;;;21.55;6.85;;;22.80;54.00;;;;;;4994720;28;20069;-75
2022/05/14 13:12:26;;;;;;;15.68;6.53;;;22.80;53.90;;;;;;4993726;28;20071;-75
2022/05/14 13:14:53;;;;;;;;;;;22.80;53.70;;;;;;5012433;28;20033;-75
2022/05/14 13:17:19;;;;;;;20.50;6.22;;;22.80;54.00;;;;;;5010943;28;19917;-75
2022/05/14 13:19:48;;;;;;;16.10;6.20;;;22.80;54.40;;;;;;5024673;28;20351;-75
2022/05/14 13:22:37;;;;;;;18.42;6.70;;;22.80;54.10;;;;;;5026444;28;20228;-74
2022/05/14 13:25:29;;;;;;;21.25;6.75;;;22.80;54.00;;;;;;5005783;28;20026;-75